createdAt,value
2019-04-14T00:02:31.716Z,35.87
2019-04-14T00:05:01.790Z,35.98
2019-04-14T00:07:30.355Z,36.28
2019-04-14T00:10:02.952Z,36.03
2019-04-14T00:12:31.663Z,36.51
2019-04-14T00:14:59.866Z,36.20
2019-04-14T00:17:28.333Z,36.18
2019-04-14T00:19:56.649Z,36.45
2019-04-14T00:22:27.557Z,36.27
2019-04-14T00:24:55.357Z,36.20
2019-04-14T00:27:23.879Z,35.28
2019-04-14T00:29:52.820Z,34.76
2019-04-14T00:32:22.687Z,34.95
2019-04-14T00:35:06.316Z,34.92
2019-04-14T00:37:42.482Z,34.99
2019-04-14T00:40:19.307Z,35.11
2019-04-14T00:43:07.395Z,35.17
2019-04-14T00:45:48.214Z,35.29
2019-04-14T00:48:17.531Z,34.76
2019-04-14T00:50:43.831Z,34.47
2019-04-14T00:53:12.145Z,35.06
2019-04-14T00:55:40.551Z,34.94
2019-04-14T00:58:08.554Z,35.08
2019-04-14T01:00:36.463Z,35.24
2019-04-14T01:03:04.788Z,35.17
2019-04-14T01:05:34.398Z,35.29
2019-04-14T01:08:03.112Z,35.09
2019-04-14T01:10:30.650Z,35.19
2019-04-14T01:12:58.200Z,35.31
2019-04-14T01:15:26.741Z,35.39
2019-04-14T01:17:54.979Z,35.19
2019-04-14T01:20:23.205Z,35.35
2019-04-14T01:22:51.008Z,35.09
2019-04-14T01:25:19.266Z,34.99
2019-04-14T01:28:06.862Z,34.80
2019-04-14T01:30:35.129Z,35.07
2019-04-14T01:33:03.333Z,35.10
2019-04-14T01:35:31.433Z,35.17
2019-04-14T01:37:59.433Z,35.09
2019-04-14T01:40:29.200Z,35.28
2019-04-14T01:42:57.323Z,35.17
2019-04-14T01:45:25.334Z,35.34
2019-04-14T01:47:53.379Z,35.30
2019-04-14T01:50:25.567Z,35.50
2019-04-14T01:52:59.576Z,35.34
2019-04-14T01:56:05.647Z,35.13
2019-04-14T01:58:49.040Z,35.11
2019-04-14T02:01:21.723Z,35.15
2019-04-14T02:03:49.958Z,35.31
2019-04-14T02:06:18.051Z,35.29
2019-04-14T02:08:45.894Z,35.30
2019-04-14T02:11:15.764Z,35.39
2019-04-14T02:13:44.257Z,35.42
2019-04-14T02:16:22.985Z,35.31
2019-04-14T02:18:42.624Z,35.06
2019-04-14T02:21:12.850Z,34.96
2019-04-14T02:23:41.203Z,34.99
2019-04-14T02:26:09.215Z,34.94
2019-04-14T02:28:39.573Z,34.64
2019-04-14T02:31:17.713Z,35.04
2019-04-14T02:33:58.769Z,35.12
2019-04-14T02:36:41.745Z,35.13
2019-04-14T02:39:08.625Z,35.19
2019-04-14T02:41:35.736Z,35.23
2019-04-14T02:44:04.625Z,35.20
2019-04-14T02:46:39.979Z,35.10
2019-04-14T02:49:08.305Z,35.17
2019-04-14T02:51:33.681Z,35.40
2019-04-14T02:54:09.949Z,35.20
2019-04-14T02:56:30.881Z,34.97
2019-04-14T02:59:01.789Z,34.90
2019-04-14T03:01:31.667Z,34.86
2019-04-14T03:04:16.289Z,34.84
2019-04-14T03:06:26.046Z,34.86
2019-04-14T03:11:31.189Z,35.28
2019-04-14T03:14:01.291Z,35.22
2019-04-14T03:19:06.449Z,35.28
2019-04-14T03:22:37.246Z,35.13
2019-04-14T03:24:57.201Z,35.37
2019-04-14T03:30:46.231Z,35.21
2019-04-14T03:37:50.747Z,35.29
2019-04-14T03:40:18.599Z,35.36
2019-04-14T03:42:43.831Z,35.46
2019-04-14T03:45:14.428Z,35.23
2019-04-14T03:47:42.042Z,35.14
2019-04-14T03:50:16.110Z,34.93
2019-04-14T03:52:49.767Z,34.99
2019-04-14T03:55:09.448Z,34.79
2019-04-14T03:57:19.306Z,34.52
2019-04-14T03:59:47.785Z,34.99
2019-04-14T04:02:16.094Z,35.15
2019-04-14T04:04:44.505Z,35.05
2019-04-14T04:07:12.641Z,35.10
2019-04-14T04:09:49.690Z,35.25
2019-04-14T04:12:18.239Z,35.39
2019-04-14T04:14:46.394Z,35.38
2019-04-14T04:17:36.188Z,35.37
2019-04-14T04:20:39.141Z,35.41
2019-04-14T04:23:27.086Z,34.88
2019-04-14T04:26:14.711Z,35.12
2019-04-14T04:28:58.858Z,35.36
2019-04-14T04:31:46.124Z,35.36
2019-04-14T04:34:33.815Z,35.27
2019-04-14T04:37:08.386Z,34.72
2019-04-14T04:39:39.684Z,35.04
2019-04-14T04:42:09.008Z,35.12
2019-04-14T04:44:37.664Z,35.22
2019-04-14T04:47:05.704Z,35.28
2019-04-14T04:49:34.212Z,35.42
2019-04-14T04:52:01.808Z,35.33
2019-04-14T04:54:30.127Z,35.35
2019-04-14T04:56:58.330Z,35.39
2019-04-14T04:59:25.675Z,35.38
2019-04-14T05:01:53.847Z,35.14
2019-04-14T05:04:22.006Z,35.07
2019-04-14T05:06:59.454Z,34.75
2019-04-14T05:09:44.846Z,34.54
2019-04-14T05:12:26.781Z,34.79
2019-04-14T05:15:05.246Z,35.07
2019-04-14T05:17:33.994Z,35.28
2019-04-14T05:20:03.168Z,35.18
2019-04-14T05:22:31.336Z,35.41
2019-04-14T05:24:59.288Z,35.36
2019-04-14T05:27:27.627Z,35.37
2019-04-14T05:29:55.909Z,35.08
2019-04-14T05:32:23.993Z,34.89
2019-04-14T05:34:52.162Z,34.71
2019-04-14T05:37:20.379Z,34.70
2019-04-14T05:39:48.432Z,34.48
2019-04-14T05:42:20.145Z,34.86
2019-04-14T05:44:47.129Z,34.93
2019-04-14T05:47:15.337Z,35.08
2019-04-14T05:49:46.826Z,35.03
2019-04-14T05:52:12.045Z,35.05
2019-04-14T05:54:40.442Z,35.05
2019-04-14T05:57:08.716Z,35.10
2019-04-14T05:59:37.442Z,35.22
2019-04-14T06:02:04.907Z,35.14
2019-04-14T06:04:33.191Z,35.12
2019-04-14T06:07:02.572Z,35.12
2019-04-14T06:09:30.168Z,34.94
2019-04-14T06:11:58.713Z,35.00
2019-04-14T06:14:25.852Z,34.59
2019-04-14T06:16:53.370Z,34.61
2019-04-14T06:19:20.726Z,34.47
2019-04-14T06:21:48.205Z,34.21
2019-04-14T06:24:15.587Z,34.34
2019-04-14T06:26:43.019Z,34.77
2019-04-14T06:29:10.208Z,34.70
2019-04-14T06:31:56.097Z,34.80
2019-04-14T06:34:34.889Z,34.89
2019-04-14T06:37:06.800Z,34.92
2019-04-14T06:39:37.690Z,34.80
2019-04-14T06:42:05.537Z,34.83
2019-04-14T06:44:33.515Z,34.72
2019-04-14T06:47:01.271Z,34.42
2019-04-14T06:49:28.287Z,34.48
2019-04-14T06:51:55.371Z,34.09
2019-04-14T06:54:22.692Z,33.93
2019-04-14T06:56:50.152Z,34.17
2019-04-14T06:59:17.252Z,34.35
2019-04-14T07:01:44.400Z,34.07
2019-04-14T07:04:11.697Z,34.24
2019-04-14T07:06:39.338Z,34.33
2019-04-14T07:09:06.734Z,34.21
2019-04-14T07:11:34.786Z,34.34
2019-04-14T07:14:02.778Z,34.38
2019-04-14T07:16:30.393Z,34.06
2019-04-14T07:18:57.917Z,34.06
2019-04-14T07:21:25.404Z,34.15
2019-04-14T07:23:53.832Z,34.11
2019-04-14T07:26:21.109Z,34.10
2019-04-14T07:28:56.473Z,33.92
2019-04-14T07:31:52.511Z,33.54
2019-04-14T07:34:31.789Z,33.40
2019-04-14T07:37:21.551Z,33.61
2019-04-14T07:40:11.940Z,33.88
2019-04-14T07:43:04.890Z,33.93
2019-04-14T07:45:47.934Z,33.58
2019-04-14T07:48:34.979Z,33.01
2019-04-14T07:51:21.372Z,33.52
2019-04-14T07:53:52.349Z,33.98
2019-04-14T07:56:30.797Z,33.90
2019-04-14T07:59:17.121Z,33.85
2019-04-14T08:02:03.559Z,33.66
2019-04-14T08:04:33.965Z,33.27
2019-04-14T08:07:01.658Z,32.95
2019-04-14T08:09:29.373Z,33.20
2019-04-14T08:11:57.221Z,33.43
2019-04-14T08:14:25.580Z,33.67
2019-04-14T08:16:53.169Z,33.39
2019-04-14T08:19:21.717Z,33.22
2019-04-14T08:21:49.018Z,33.42
2019-04-14T08:24:16.836Z,33.32
2019-04-14T08:26:44.034Z,33.47
2019-04-14T08:29:11.410Z,33.30
2019-04-14T08:31:38.525Z,33.35
2019-04-14T08:34:05.819Z,33.08
2019-04-14T08:36:33.690Z,33.08
2019-04-14T08:39:01.115Z,32.81
2019-04-14T08:41:31.894Z,33.03
2019-04-14T08:44:16.671Z,32.29
2019-04-14T08:47:02.859Z,32.19
2019-04-14T08:49:41.085Z,32.78
2019-04-14T08:52:24.050Z,32.94
2019-04-14T08:55:10.304Z,32.90
2019-04-14T08:58:04.259Z,33.01
2019-04-14T09:00:51.946Z,32.18
2019-04-14T09:03:39.073Z,31.83
2019-04-14T09:06:38.516Z,32.36
2019-04-14T09:09:31.344Z,32.67
2019-04-14T09:12:14.544Z,32.01
2019-04-14T09:14:31.867Z,31.88
2019-04-14T09:16:59.892Z,31.74
2019-04-14T09:19:27.287Z,32.03
2019-04-14T09:21:54.971Z,32.26
2019-04-14T09:24:23.169Z,32.39
2019-04-14T09:26:50.332Z,32.35
2019-04-14T09:29:18.712Z,32.21
2019-04-14T09:31:46.106Z,32.31
2019-04-14T09:34:15.632Z,32.20
2019-04-14T09:36:42.738Z,32.28
2019-04-14T09:39:09.964Z,32.16
2019-04-14T09:41:36.977Z,32.18
2019-04-14T09:44:04.474Z,32.03
2019-04-14T09:46:32.013Z,31.56
2019-04-14T09:48:59.900Z,31.79
2019-04-14T09:51:26.943Z,31.61
2019-04-14T09:53:53.970Z,31.74
2019-04-14T09:56:21.299Z,31.54
2019-04-14T09:58:48.343Z,31.67
2019-04-14T10:01:15.470Z,31.62
2019-04-14T10:03:42.677Z,32.04
2019-04-14T10:06:11.914Z,32.05
2019-04-14T10:08:39.677Z,32.37
2019-04-14T10:11:07.792Z,32.31
2019-04-14T10:13:35.642Z,32.03
2019-04-14T10:16:02.948Z,32.12
2019-04-14T10:18:30.048Z,32.11
2019-04-14T10:20:57.055Z,32.26
2019-04-14T10:23:24.195Z,32.21
2019-04-14T10:25:51.198Z,32.10
2019-04-14T10:28:18.425Z,32.06
2019-04-14T10:30:45.599Z,31.92
2019-04-14T10:33:12.733Z,31.81
2019-04-14T10:35:40.451Z,31.37
2019-04-14T10:38:08.317Z,31.70
2019-04-14T10:40:35.623Z,31.16
2019-04-14T10:43:03.181Z,32.19
2019-04-14T10:45:30.779Z,31.92
2019-04-14T10:47:58.391Z,31.65
2019-04-14T10:50:30.959Z,31.64
2019-04-14T10:52:54.978Z,31.59
2019-04-14T10:55:22.662Z,31.65
2019-04-14T10:57:50.623Z,31.54
2019-04-14T11:00:18.694Z,31.53
2019-04-14T11:02:46.077Z,31.56
2019-04-14T11:05:13.400Z,31.37
2019-04-14T11:07:40.859Z,31.49
2019-04-14T11:10:09.561Z,31.49
2019-04-14T11:12:37.061Z,31.38
2019-04-14T11:15:05.171Z,31.03
2019-04-14T11:17:32.264Z,31.07
2019-04-14T11:19:59.772Z,31.29
2019-04-14T11:22:27.243Z,30.94
2019-04-14T11:24:56.442Z,30.59
2019-04-14T11:27:24.155Z,31.26
2019-04-14T11:29:53.934Z,30.32
2019-04-14T11:32:43.251Z,30.78
2019-04-14T11:35:28.843Z,30.98
2019-04-14T11:38:18.305Z,31.40
2019-04-14T11:40:48.160Z,32.07
2019-04-14T11:43:15.662Z,31.42
2019-04-14T11:45:42.904Z,31.28
2019-04-14T11:48:10.023Z,30.59
2019-04-14T11:50:37.153Z,30.36
2019-04-14T11:53:04.495Z,30.68
2019-04-14T11:55:32.046Z,30.43
2019-04-14T11:57:59.233Z,30.74
2019-04-14T12:00:38.450Z,31.20
2019-04-14T12:03:25.106Z,31.13
2019-04-14T12:06:12.605Z,31.31
2019-04-14T12:08:55.015Z,31.35
2019-04-14T12:11:22.457Z,30.75
2019-04-14T12:13:49.874Z,30.61
2019-04-14T12:16:19.092Z,30.09
2019-04-14T12:18:46.986Z,32.14
2019-04-14T12:21:15.158Z,30.00
2019-04-14T12:23:42.598Z,30.98
2019-04-14T12:26:10.139Z,31.42
2019-04-14T12:28:38.322Z,31.42
2019-04-14T12:31:06.509Z,31.53
2019-04-14T12:33:35.165Z,31.03
2019-04-14T12:36:03.612Z,31.15
2019-04-14T12:38:31.179Z,30.88
2019-04-14T12:41:00.975Z,30.81
2019-04-14T12:43:42.222Z,30.87
2019-04-14T12:46:36.196Z,31.01
2019-04-14T12:49:19.913Z,29.68
2019-04-14T12:52:05.681Z,30.03
2019-04-14T12:54:33.267Z,30.95
2019-04-14T12:57:01.123Z,30.82
2019-04-14T12:59:28.763Z,30.99
2019-04-14T13:02:16.003Z,30.36
2019-04-14T13:04:43.564Z,30.39
2019-04-14T13:07:10.691Z,29.81
2019-04-14T13:09:38.394Z,29.23
2019-04-14T13:12:05.665Z,29.34
2019-04-14T13:14:32.913Z,28.99
2019-04-14T13:16:59.930Z,29.12
2019-04-14T13:19:27.264Z,28.93
2019-04-14T13:21:54.688Z,28.52
2019-04-14T13:24:22.214Z,28.70
2019-04-14T13:26:50.744Z,29.27
2019-04-14T13:29:18.275Z,29.52
2019-04-14T13:31:46.345Z,29.65
2019-04-14T13:34:13.451Z,29.44
2019-04-14T13:36:41.001Z,29.72
2019-04-14T13:39:08.628Z,29.55
2019-04-14T13:41:36.941Z,29.45
2019-04-14T13:44:05.003Z,29.35
2019-04-14T13:46:33.917Z,29.26
2019-04-14T13:49:02.788Z,28.40
2019-04-14T13:51:30.162Z,28.17
2019-04-14T13:53:57.591Z,27.68
2019-04-14T13:56:24.782Z,27.53
2019-04-14T13:58:52.218Z,26.82
2019-04-14T14:01:19.498Z,27.13
2019-04-14T14:03:46.821Z,26.59
2019-04-14T14:06:14.149Z,26.73
2019-04-14T14:08:41.753Z,27.15
2019-04-14T14:11:16.987Z,27.72
2019-04-14T14:13:49.189Z,28.56
2019-04-14T14:16:27.029Z,28.18
2019-04-14T14:19:01.795Z,28.30
2019-04-14T14:21:45.001Z,28.52
2019-04-14T14:24:46.989Z,28.71
2019-04-14T14:27:14.220Z,27.96
2019-04-14T14:29:41.471Z,27.52
2019-04-14T14:32:28.777Z,28.08
2019-04-14T14:34:56.844Z,28.70
2019-04-14T14:37:24.689Z,28.62
2019-04-14T14:39:52.741Z,28.46
2019-04-14T14:42:21.172Z,28.72
2019-04-14T14:45:04.403Z,28.98
2019-04-14T14:47:32.492Z,28.87
2019-04-14T14:50:18.985Z,28.64
2019-04-14T14:52:46.799Z,29.08
2019-04-14T14:55:13.912Z,28.53
2019-04-14T14:57:41.229Z,28.17
2019-04-14T15:00:14.657Z,28.98
2019-04-14T15:02:42.377Z,28.89
2019-04-14T15:05:09.739Z,28.89
2019-04-14T15:07:37.164Z,29.21
2019-04-14T15:10:04.440Z,29.11
2019-04-14T15:12:32.392Z,29.17
2019-04-14T15:14:59.970Z,29.40
2019-04-14T15:17:28.041Z,29.68
2019-04-14T15:19:55.993Z,26.76
2019-04-14T15:22:23.737Z,24.51
2019-04-14T15:24:51.970Z,25.76
2019-04-14T15:27:18.996Z,24.03
2019-04-14T15:29:46.650Z,23.23
2019-04-14T15:32:13.681Z,22.65
2019-04-14T15:34:40.804Z,23.14
2019-04-14T15:37:07.973Z,23.62
2019-04-14T15:39:37.616Z,24.39
2019-04-14T15:42:05.017Z,24.69
2019-04-14T15:44:32.297Z,25.33
2019-04-14T15:46:59.773Z,25.93
2019-04-14T15:49:27.131Z,26.07
2019-04-14T15:51:54.499Z,26.55
2019-04-14T15:54:25.311Z,26.76
2019-04-14T15:57:14.674Z,26.23
2019-04-14T15:59:48.710Z,26.39
2019-04-14T16:02:22.104Z,26.20
2019-04-14T16:05:18.806Z,26.12
2019-04-14T16:08:05.253Z,26.60
2019-04-14T16:10:52.253Z,27.04
2019-04-14T16:13:35.602Z,27.50
2019-04-14T16:16:37.826Z,27.81
2019-04-14T16:19:14.281Z,27.70
2019-04-14T16:21:41.293Z,27.07
2019-04-14T16:24:08.688Z,27.69
2019-04-14T16:26:58.602Z,27.93
2019-04-14T16:29:34.381Z,28.20
2019-04-14T16:32:07.003Z,28.53
2019-04-14T16:34:39.730Z,28.66
2019-04-14T16:37:07.600Z,28.71
2019-04-14T16:39:35.690Z,28.34
2019-04-14T16:42:02.702Z,28.28
2019-04-14T16:44:30.651Z,28.58
2019-04-14T16:46:58.522Z,28.86
2019-04-14T16:49:25.832Z,28.54
2019-04-14T16:51:56.429Z,28.98
2019-04-14T16:54:41.490Z,28.33
2019-04-14T16:57:29.193Z,29.40
2019-04-14T16:59:57.176Z,29.63
2019-04-14T17:02:24.557Z,29.99
2019-04-14T17:04:51.789Z,29.82
2019-04-14T17:07:19.795Z,30.09
2019-04-14T17:09:47.631Z,30.06
2019-04-14T17:12:15.156Z,29.80
2019-04-14T17:14:48.118Z,29.58
2019-04-14T17:17:47.307Z,29.57
2019-04-14T17:20:34.468Z,29.39
2019-04-14T17:23:21.740Z,30.37
2019-04-14T17:25:54.613Z,31.35
2019-04-14T17:28:40.181Z,32.49
2019-04-14T17:31:15.333Z,32.23
2019-04-14T17:33:57.101Z,31.30
2019-04-14T17:36:30.900Z,31.20
2019-04-14T17:39:16.978Z,32.74
2019-04-14T17:42:03.868Z,32.64
2019-04-14T17:44:44.489Z,31.81
2019-04-14T17:47:47.007Z,31.78
2019-04-14T17:50:40.481Z,30.95
2019-04-14T17:53:08.402Z,30.88
2019-04-14T17:55:58.541Z,31.37
2019-04-14T17:58:43.583Z,31.40
2019-04-14T18:01:29.343Z,31.88
2019-04-14T18:04:19.343Z,31.23
2019-04-14T18:06:51.460Z,31.44
2019-04-14T18:09:37.304Z,31.61
2019-04-14T18:12:17.102Z,31.70
2019-04-14T18:14:58.198Z,33.47
2019-04-14T18:17:50.727Z,34.09
2019-04-14T18:20:21.814Z,34.36
2019-04-14T18:22:49.831Z,32.21
2019-04-14T18:25:17.430Z,31.52
2019-04-14T18:27:54.060Z,33.69
2019-04-14T18:30:26.113Z,34.21
2019-04-14T18:33:06.616Z,34.25
2019-04-14T18:35:44.919Z,34.15
2019-04-14T18:38:25.710Z,34.22
2019-04-14T18:41:01.554Z,34.50
2019-04-14T18:44:07.499Z,34.39
2019-04-14T18:47:00.990Z,34.38
2019-04-14T18:49:51.919Z,34.75
2019-04-14T18:52:29.890Z,34.77
2019-04-14T18:55:27.340Z,35.00
2019-04-14T18:58:14.413Z,34.09
2019-04-14T19:00:47.139Z,32.90
2019-04-14T19:03:15.083Z,33.95
2019-04-14T19:05:42.700Z,34.06
2019-04-14T19:08:10.526Z,34.38
2019-04-14T19:10:38.348Z,35.50
2019-04-14T19:13:18.348Z,35.36
2019-04-14T19:15:50.274Z,35.59
2019-04-14T19:18:30.296Z,35.89
2019-04-14T19:21:01.835Z,35.24
2019-04-14T19:23:31.883Z,35.06
2019-04-14T19:26:00.253Z,35.34
2019-04-14T19:28:27.303Z,36.04
2019-04-14T19:30:54.573Z,36.41
2019-04-14T19:33:22.752Z,36.88
2019-04-14T19:35:49.979Z,36.81
2019-04-14T19:38:17.805Z,35.94
2019-04-14T19:40:45.366Z,35.87
2019-04-14T19:43:23.147Z,36.48
2019-04-14T19:45:41.988Z,37.10
2019-04-14T19:48:09.420Z,36.95
2019-04-14T19:50:36.565Z,36.42
2019-04-14T19:53:03.851Z,36.46
2019-04-14T19:55:32.996Z,36.44
2019-04-14T19:58:01.937Z,36.61
2019-04-14T20:00:31.444Z,36.23
2019-04-14T20:03:00.427Z,36.72
2019-04-14T20:05:29.467Z,36.78
2019-04-14T20:07:58.270Z,36.49
2019-04-14T20:10:27.493Z,36.89
2019-04-14T20:12:57.505Z,36.75
2019-04-14T20:15:27.979Z,36.65
2019-04-14T20:18:10.871Z,36.61
2019-04-14T20:21:04.885Z,36.42
2019-04-14T20:23:41.151Z,36.69
2019-04-14T20:26:32.754Z,36.63
2019-04-14T20:29:06.241Z,36.64
2019-04-14T20:31:42.240Z,35.97
2019-04-14T20:34:11.442Z,32.96
2019-04-14T20:36:40.668Z,31.31
2019-04-14T20:39:13.709Z,31.49
2019-04-14T20:41:42.029Z,33.02
2019-04-14T20:44:09.094Z,33.56
2019-04-14T20:46:36.097Z,33.77
2019-04-14T20:49:03.671Z,34.79
2019-04-14T20:51:30.865Z,34.03
2019-04-14T20:53:58.411Z,34.61
2019-04-14T20:56:25.738Z,34.85
2019-04-14T20:58:52.877Z,34.67
2019-04-14T21:01:20.967Z,34.85
2019-04-14T21:04:02.548Z,35.49
2019-04-14T21:06:46.339Z,34.77
2019-04-14T21:09:33.462Z,36.14
2019-04-14T21:12:18.560Z,36.44
2019-04-14T21:15:09.560Z,36.67
2019-04-14T21:17:57.325Z,36.78
2019-04-14T21:20:40.697Z,35.63
2019-04-14T21:23:16.949Z,36.49
2019-04-14T21:26:00.693Z,36.59
2019-04-14T21:28:59.627Z,37.19
2019-04-14T21:31:32.851Z,36.91
2019-04-14T21:34:09.001Z,36.51
2019-04-14T21:37:03.825Z,35.76
2019-04-14T21:39:35.915Z,35.18
2019-04-14T21:42:02.895Z,35.74
2019-04-14T21:44:30.589Z,35.77
2019-04-14T21:46:58.360Z,35.92
2019-04-14T21:49:25.993Z,36.01
2019-04-14T21:52:06.591Z,35.88
2019-04-14T21:54:33.871Z,36.01
2019-04-14T21:57:24.625Z,35.76
2019-04-14T22:00:08.560Z,36.08
2019-04-14T22:03:07.309Z,35.55
2019-04-14T22:05:42.417Z,35.87
2019-04-14T22:08:25.280Z,36.12
2019-04-14T22:10:57.792Z,36.15
2019-04-14T22:13:25.214Z,35.86
2019-04-14T22:15:52.332Z,35.81
2019-04-14T22:18:19.854Z,35.56
2019-04-14T22:20:47.193Z,35.61
2019-04-14T22:23:14.182Z,35.59
2019-04-14T22:25:41.177Z,35.20
2019-04-14T22:28:08.563Z,35.43
2019-04-14T22:30:36.062Z,35.78
2019-04-14T22:33:03.788Z,35.87
2019-04-14T22:35:31.055Z,35.90
2019-04-14T22:37:58.366Z,35.95
2019-04-14T22:40:25.395Z,35.92
2019-04-14T22:42:53.211Z,36.01
2019-04-14T22:45:20.212Z,36.06
2019-04-14T22:47:47.449Z,36.04
2019-04-14T22:50:14.732Z,35.91
2019-04-14T22:52:41.776Z,36.09
2019-04-14T22:55:09.328Z,35.89
2019-04-14T22:57:36.589Z,36.10
2019-04-14T23:00:06.433Z,35.55
2019-04-14T23:02:53.414Z,35.57
2019-04-14T23:05:44.186Z,35.72
2019-04-14T23:08:41.589Z,35.39
2019-04-14T23:11:28.601Z,35.92
2019-04-14T23:14:24.665Z,35.98
2019-04-14T23:17:15.005Z,35.90
2019-04-14T23:19:50.548Z,34.86
2019-04-14T23:22:36.408Z,35.95
2019-04-14T23:25:03.777Z,35.99
2019-04-14T23:27:31.270Z,36.15
2019-04-14T23:29:58.553Z,36.20
2019-04-14T23:32:25.604Z,36.19
2019-04-14T23:34:52.657Z,35.89
2019-04-14T23:37:20.117Z,36.11
2019-04-14T23:39:47.307Z,35.57
2019-04-14T23:42:14.983Z,35.30
2019-04-14T23:44:42.342Z,35.52
2019-04-14T23:47:09.997Z,34.72
2019-04-14T23:49:37.309Z,35.18
2019-04-14T23:52:04.405Z,35.08
2019-04-14T23:54:32.035Z,35.78
2019-04-14T23:57:05.906Z,35.95
2019-04-14T23:59:31.048Z,35.93
